sensor_id;sensor_type;location;lat;lon;timestamp;pressure;altitude;pressure_sealevel;temperature;humidity
4273;BME280;63887;53.656;9.810;2023-04-19T00:02:17;103190.44;;;5.37;77.50
4273;BME280;63887;53.656;9.810;2023-04-19T00:04:44;103194.72;;;5.32;77.73
4273;BME280;63887;53.656;9.810;2023-04-19T00:07:12;103192.06;;;5.21;79.50
4273;BME280;63887;53.656;9.810;2023-04-19T00:09:39;103187.69;;;5.16;79.54
4273;BME280;63887;53.656;9.810;2023-04-19T00:12:05;103182.50;;;5.20;78.72
4273;BME280;63887;53.656;9.810;2023-04-19T00:14:32;103179.31;;;5.68;77.26
4273;BME280;63887;53.656;9.810;2023-04-19T00:16:58;103184.38;;;5.41;78.09
4273;BME280;63887;53.656;9.810;2023-04-19T00:19:25;103178.28;;;5.36;77.86
4273;BME280;63887;53.656;9.810;2023-04-19T00:21:51;103172.16;;;5.29;79.20
4273;BME280;63887;53.656;9.810;2023-04-19T00:24:19;103178.22;;;5.27;78.70
4273;BME280;63887;53.656;9.810;2023-04-19T00:26:45;103171.50;;;5.76;76.77
4273;BME280;63887;53.656;9.810;2023-04-19T00:29:12;103171.66;;;6.05;75.35
4273;BME280;63887;53.656;9.810;2023-04-19T00:31:38;103170.66;;;5.73;76.70
4273;BME280;63887;53.656;9.810;2023-04-19T00:34:04;103165.53;;;5.94;75.47
4273;BME280;63887;53.656;9.810;2023-04-19T00:36:31;103169.78;;;5.74;76.51
4273;BME280;63887;53.656;9.810;2023-04-19T00:38:58;103162.00;;;5.89;75.63
4273;BME280;63887;53.656;9.810;2023-04-19T00:41:26;103169.91;;;5.96;75.28
4273;BME280;63887;53.656;9.810;2023-04-19T00:43:52;103168.84;;;5.64;76.54
4273;BME280;63887;53.656;9.810;2023-04-19T00:46:19;103163.72;;;5.79;74.85
4273;BME280;63887;53.656;9.810;2023-04-19T00:48:46;103165.47;;;5.83;75.46
4273;BME280;63887;53.656;9.810;2023-04-19T00:51:13;103167.03;;;5.46;76.64
4273;BME280;63887;53.656;9.810;2023-04-19T00:53:39;103165.44;;;5.76;75.51
4273;BME280;63887;53.656;9.810;2023-04-19T00:56:07;103159.31;;;5.64;75.60
4273;BME280;63887;53.656;9.810;2023-04-19T00:58:36;103153.75;;;5.00;78.88
4273;BME280;63887;53.656;9.810;2023-04-19T01:01:03;103164.44;;;5.49;76.19
4273;BME280;63887;53.656;9.810;2023-04-19T01:03:30;103161.13;;;5.84;74.82
4273;BME280;63887;53.656;9.810;2023-04-19T01:05:59;103163.69;;;5.65;74.38
4273;BME280;63887;53.656;9.810;2023-04-19T01:08:25;103167.19;;;5.78;74.23
4273;BME280;63887;53.656;9.810;2023-04-19T01:10:51;103170.59;;;5.63;74.82
4273;BME280;63887;53.656;9.810;2023-04-19T01:13:18;103159.41;;;5.83;74.25
4273;BME280;63887;53.656;9.810;2023-04-19T01:15:46;103155.94;;;5.84;73.44
4273;BME280;63887;53.656;9.810;2023-04-19T01:18:12;103159.31;;;5.64;73.46
4273;BME280;63887;53.656;9.810;2023-04-19T01:20:39;103159.94;;;5.19;76.23
4273;BME280;63887;53.656;9.810;2023-04-19T01:23:06;103158.28;;;5.33;76.04
4273;BME280;63887;53.656;9.810;2023-04-19T01:25:35;103159.13;;;5.25;75.27
4273;BME280;63887;53.656;9.810;2023-04-19T01:28:02;103160.22;;;5.66;72.90
4273;BME280;63887;53.656;9.810;2023-04-19T01:30:29;103169.75;;;5.67;72.79
4273;BME280;63887;53.656;9.810;2023-04-19T01:32:55;103155.94;;;5.84;72.57
4273;BME280;63887;53.656;9.810;2023-04-19T01:35:22;103161.03;;;5.61;73.23
4273;BME280;63887;53.656;9.810;2023-04-19T01:37:48;103171.38;;;5.47;73.47
4273;BME280;63887;53.656;9.810;2023-04-19T01:40:17;103168.81;;;5.52;73.78
4273;BME280;63887;53.656;9.810;2023-04-19T01:42:44;103161.91;;;5.58;73.37
4273;BME280;63887;53.656;9.810;2023-04-19T01:45:10;103160.97;;;5.49;73.48
4273;BME280;63887;53.656;9.810;2023-04-19T01:47:37;103162.69;;;5.39;73.40
4273;BME280;63887;53.656;9.810;2023-04-19T01:50:04;103154.03;;;5.49;73.43
4273;BME280;63887;53.656;9.810;2023-04-19T01:52:31;103152.34;;;5.60;72.31
4273;BME280;63887;53.656;9.810;2023-04-19T01:54:57;103148.03;;;5.59;72.94
4273;BME280;63887;53.656;9.810;2023-04-19T01:57:25;103153.22;;;5.62;72.94
4273;BME280;63887;53.656;9.810;2023-04-19T01:59:52;103151.50;;;5.64;72.30
4273;BME280;63887;53.656;9.810;2023-04-19T02:02:19;103144.59;;;5.71;72.41
4273;BME280;63887;53.656;9.810;2023-04-19T02:04:45;103143.59;;;5.37;73.35
4273;BME280;63887;53.656;9.810;2023-04-19T02:07:12;103139.97;;;5.12;74.73
4273;BME280;63887;53.656;9.810;2023-04-19T02:09:38;103142.66;;;5.30;73.55
4273;BME280;63887;53.656;9.810;2023-04-19T02:12:05;103140.06;;;5.32;73.98
4273;BME280;63887;53.656;9.810;2023-04-19T02:14:34;103136.66;;;5.37;74.21
4273;BME280;63887;53.656;9.810;2023-04-19T02:17:00;103134.94;;;5.43;73.22
4273;BME280;63887;53.656;9.810;2023-04-19T02:19:27;103133.25;;;5.55;72.61
4273;BME280;63887;53.656;9.810;2023-04-19T02:21:53;103138.53;;;5.77;72.72
4273;BME280;63887;53.656;9.810;2023-04-19T02:24:22;103129.81;;;5.62;72.02
4273;BME280;63887;53.656;9.810;2023-04-19T02:26:48;103140.06;;;5.30;74.07
4273;BME280;63887;53.656;9.810;2023-04-19T02:29:14;103136.50;;;5.08;74.84
4273;BME280;63887;53.656;9.810;2023-04-19T02:31:43;103140.06;;;5.32;74.47
4273;BME280;63887;53.656;9.810;2023-04-19T02:34:10;103138.41;;;5.43;73.92
4273;BME280;63887;53.656;9.810;2023-04-19T02:36:37;103147.94;;;5.46;73.55
4273;BME280;63887;53.656;9.810;2023-04-19T02:39:03;103137.53;;;5.41;73.25
4273;BME280;63887;53.656;9.810;2023-04-19T02:41:30;103139.19;;;5.25;74.00
4273;BME280;63887;53.656;9.810;2023-04-19T02:43:57;103145.97;;;5.05;75.70
4273;BME280;63887;53.656;9.810;2023-04-19T02:46:23;103139.03;;;5.05;75.46
4273;BME280;63887;53.656;9.810;2023-04-19T02:48:51;103139.91;;;5.01;75.05
4273;BME280;63887;53.656;9.810;2023-04-19T02:51:17;103142.59;;;5.20;74.00
4273;BME280;63887;53.656;9.810;2023-04-19T02:53:44;103142.59;;;5.18;74.19
4273;BME280;63887;53.656;9.810;2023-04-19T02:56:10;103146.13;;;5.29;73.52
4273;BME280;63887;53.656;9.810;2023-04-19T02:58:37;103146.19;;;5.37;73.37
4273;BME280;63887;53.656;9.810;2023-04-19T03:01:03;103137.56;;;5.50;72.76
4273;BME280;63887;53.656;9.810;2023-04-19T03:03:30;103136.75;;;5.62;72.54
4273;BME280;63887;53.656;9.810;2023-04-19T03:05:57;103135.00;;;5.55;72.27
4273;BME280;63887;53.656;9.810;2023-04-19T03:08:24;103135.66;;;5.14;73.66
4273;BME280;63887;53.656;9.810;2023-04-19T03:10:50;103134.84;;;5.24;73.20
4273;BME280;63887;53.656;9.810;2023-04-19T03:13:17;103128.63;;;5.02;74.41
4273;BME280;63887;53.656;9.810;2023-04-19T03:15:43;103130.44;;;5.14;73.76
4273;BME280;63887;53.656;9.810;2023-04-19T03:18:10;103127.84;;;5.11;74.04
4273;BME280;63887;53.656;9.810;2023-04-19T03:20:36;103126.88;;;4.94;74.64
4273;BME280;63887;53.656;9.810;2023-04-19T03:23:04;103122.53;;;4.93;74.70
4273;BME280;63887;53.656;9.810;2023-04-19T03:25:30;103133.03;;;5.09;74.45
4273;BME280;63887;53.656;9.810;2023-04-19T03:27:57;103120.13;;;5.28;72.86
4273;BME280;63887;53.656;9.810;2023-04-19T03:30:24;103119.19;;;5.20;72.55
4273;BME280;63887;53.656;9.810;2023-04-19T03:32:50;103117.44;;;5.19;72.62
4273;BME280;63887;53.656;9.810;2023-04-19T03:35:17;103121.03;;;5.39;71.65
4273;BME280;63887;53.656;9.810;2023-04-19T03:37:43;103113.16;;;5.21;72.34
4273;BME280;63887;53.656;9.810;2023-04-19T03:40:11;103117.44;;;5.16;72.35
4273;BME280;63887;53.656;9.810;2023-04-19T03:42:38;103109.56;;;5.00;72.95
4273;BME280;63887;53.656;9.810;2023-04-19T03:45:05;103117.41;;;5.09;72.55
4273;BME280;63887;53.656;9.810;2023-04-19T03:47:31;103113.78;;;4.82;74.27
4273;BME280;63887;53.656;9.810;2023-04-19T03:49:58;103104.13;;;4.65;74.91
4273;BME280;63887;53.656;9.810;2023-04-19T03:52:24;103104.03;;;4.55;75.49
4273;BME280;63887;53.656;9.810;2023-04-19T03:54:51;103109.97;;;4.40;77.37
4273;BME280;63887;53.656;9.810;2023-04-19T03:57:19;103109.97;;;4.38;77.48
4273;BME280;63887;53.656;9.810;2023-04-19T03:59:46;103105.53;;;4.27;77.81
4273;BME280;63887;53.656;9.810;2023-04-19T04:02:12;103112.44;;;4.23;77.93
4273;BME280;63887;53.656;9.810;2023-04-19T04:04:39;103111.44;;;4.10;80.68
4273;BME280;63887;53.656;9.810;2023-04-19T04:07:05;103110.56;;;4.08;80.03
4273;BME280;63887;53.656;9.810;2023-04-19T04:09:32;103106.25;;;4.10;79.93
4273;BME280;63887;53.656;9.810;2023-04-19T04:11:58;103107.88;;;4.01;80.66
4273;BME280;63887;53.656;9.810;2023-04-19T04:14:27;103108.94;;;4.21;79.60
4273;BME280;63887;53.656;9.810;2023-04-19T04:16:53;103103.75;;;4.19;78.61
4273;BME280;63887;53.656;9.810;2023-04-19T04:19:19;103103.88;;;4.35;77.91
4273;BME280;63887;53.656;9.810;2023-04-19T04:21:46;103100.41;;;4.33;78.20
4273;BME280;63887;53.656;9.810;2023-04-19T04:24:13;103102.97;;;4.31;77.58
4273;BME280;63887;53.656;9.810;2023-04-19T04:26:39;103102.09;;;4.29;78.76
4273;BME280;63887;53.656;9.810;2023-04-19T04:29:06;103103.94;;;4.44;78.45
4273;BME280;63887;53.656;9.810;2023-04-19T04:31:34;103095.34;;;4.51;77.33
4273;BME280;63887;53.656;9.810;2023-04-19T04:34:01;103101.53;;;4.68;76.06
4273;BME280;63887;53.656;9.810;2023-04-19T04:36:27;103105.13;;;4.84;75.43
4273;BME280;63887;53.656;9.810;2023-04-19T04:38:54;103108.69;;;4.98;73.95
4273;BME280;63887;53.656;9.810;2023-04-19T04:41:21;103105.31;;;5.16;72.90
4273;BME280;63887;53.656;9.810;2023-04-19T04:43:47;103111.25;;;4.94;73.68
4273;BME280;63887;53.656;9.810;2023-04-19T04:46:15;103113.06;;;5.07;73.12
4273;BME280;63887;53.656;9.810;2023-04-19T04:48:43;103108.69;;;4.98;73.28
4273;BME280;63887;53.656;9.810;2023-04-19T04:51:09;103109.72;;;5.32;71.18
4273;BME280;63887;53.656;9.810;2023-04-19T04:53:36;103107.16;;;5.40;70.71
4273;BME280;63887;53.656;9.810;2023-04-19T04:56:03;103112.38;;;5.38;70.40
4273;BME280;63887;53.656;9.810;2023-04-19T04:58:29;103106.31;;;5.46;70.40
4273;BME280;63887;53.656;9.810;2023-04-19T05:00:55;103112.38;;;5.46;70.31
4273;BME280;63887;53.656;9.810;2023-04-19T05:03:22;103108.09;;;5.51;69.43
4273;BME280;63887;53.656;9.810;2023-04-19T05:05:50;103107.09;;;5.25;71.03
4273;BME280;63887;53.656;9.810;2023-04-19T05:08:16;103109.78;;;5.42;70.15
4273;BME280;63887;53.656;9.810;2023-04-19T05:10:42;103109.69;;;5.28;70.52
4273;BME280;63887;53.656;9.810;2023-04-19T05:13:09;103108.97;;;5.59;70.32
4273;BME280;63887;53.656;9.810;2023-04-19T05:15:36;103104.56;;;5.49;69.31
4273;BME280;63887;53.656;9.810;2023-04-19T05:18:03;103108.09;;;5.54;69.38
4273;BME280;63887;53.656;9.810;2023-04-19T05:20:30;103100.34;;;5.68;70.03
4273;BME280;63887;53.656;9.810;2023-04-19T05:22:59;103103.84;;;5.82;69.48
4273;BME280;63887;53.656;9.810;2023-04-19T05:25:27;103095.19;;;5.94;68.39
4273;BME280;63887;53.656;9.810;2023-04-19T05:27:54;103102.06;;;5.80;69.27
4273;BME280;63887;53.656;9.810;2023-04-19T05:30:22;103102.97;;;5.89;68.28
4273;BME280;63887;53.656;9.810;2023-04-19T05:32:48;103095.16;;;5.83;69.65
4273;BME280;63887;53.656;9.810;2023-04-19T05:35:16;103089.16;;;6.12;68.01
4273;BME280;63887;53.656;9.810;2023-04-19T05:37:43;103096.09;;;6.07;69.00
4273;BME280;63887;53.656;9.810;2023-04-19T05:40:11;103098.72;;;6.23;68.47
4273;BME280;63887;53.656;9.810;2023-04-19T05:42:38;103100.47;;;6.14;68.49
4273;BME280;63887;53.656;9.810;2023-04-19T05:45:05;103092.63;;;6.35;68.08
4273;BME280;63887;53.656;9.810;2023-04-19T05:47:32;103090.91;;;6.74;66.98
4273;BME280;63887;53.656;9.810;2023-04-19T05:49:58;103083.69;;;7.51;64.71
4273;BME280;63887;53.656;9.810;2023-04-19T05:52:25;103084.34;;;7.91;62.44
4273;BME280;63887;53.656;9.810;2023-04-19T05:54:51;103079.78;;;8.16;62.64
4273;BME280;63887;53.656;9.810;2023-04-19T05:57:19;103088.53;;;8.13;61.70
4273;BME280;63887;53.656;9.810;2023-04-19T05:59:45;103081.59;;;8.11;62.34
4273;BME280;63887;53.656;9.810;2023-04-19T06:02:12;103081.41;;;8.32;61.06
4273;BME280;63887;53.656;9.810;2023-04-19T06:04:38;103087.66;;;9.11;58.59
4273;BME280;63887;53.656;9.810;2023-04-19T06:07:05;103082.47;;;9.74;57.01
4273;BME280;63887;53.656;9.810;2023-04-19T06:09:32;103079.56;;;10.51;53.45
4273;BME280;63887;53.656;9.810;2023-04-19T06:11:58;103073.09;;;11.56;51.09
4273;BME280;63887;53.656;9.810;2023-04-19T06:14:27;103074.75;;;12.36;48.21
4273;BME280;63887;53.656;9.810;2023-04-19T06:16:54;103077.97;;;12.81;46.52
4273;BME280;63887;53.656;9.810;2023-04-19T06:19:21;103078.59;;;13.52;44.74
4273;BME280;63887;53.656;9.810;2023-04-19T06:21:47;103067.19;;;14.60;42.10
4273;BME280;63887;53.656;9.810;2023-04-19T06:24:14;103066.41;;;15.53;39.36
4273;BME280;63887;53.656;9.810;2023-04-19T06:26:40;103069.28;;;15.70;38.39
4273;BME280;63887;53.656;9.810;2023-04-19T06:29:07;103067.47;;;16.15;37.32
4273;BME280;63887;53.656;9.810;2023-04-19T06:31:35;103064.41;;;16.03;37.42
4273;BME280;63887;53.656;9.810;2023-04-19T06:34:01;103067.34;;;15.74;37.36
4273;BME280;63887;53.656;9.810;2023-04-19T06:36:28;103064.09;;;15.67;38.16
4273;BME280;63887;53.656;9.810;2023-04-19T06:38:54;103065.91;;;15.20;38.25
4273;BME280;63887;53.656;9.810;2023-04-19T06:41:20;103070.69;;;14.85;39.35
4273;BME280;63887;53.656;9.810;2023-04-19T06:43:47;103066.31;;;15.33;38.78
4273;BME280;63887;53.656;9.810;2023-04-19T06:46:13;103055.31;;;15.43;38.67
4273;BME280;63887;53.656;9.810;2023-04-19T06:48:41;103055.72;;;15.33;38.47
4273;BME280;63887;53.656;9.810;2023-04-19T06:51:08;103051.19;;;15.82;37.92
4273;BME280;63887;53.656;9.810;2023-04-19T06:53:34;103050.50;;;15.76;37.46
4273;BME280;63887;53.656;9.810;2023-04-19T06:56:02;103055.78;;;15.08;39.16
4273;BME280;63887;53.656;9.810;2023-04-19T06:58:29;103047.22;;;13.98;41.55
4273;BME280;63887;53.656;9.810;2023-04-19T07:00:56;103053.53;;;13.66;43.07
4273;BME280;63887;53.656;9.810;2023-04-19T07:03:23;103053.56;;;13.65;43.26
4273;BME280;63887;53.656;9.810;2023-04-19T07:05:50;103050.88;;;13.94;42.89
4273;BME280;63887;53.656;9.810;2023-04-19T07:08:20;103048.47;;;13.31;43.39
4273;BME280;63887;53.656;9.810;2023-04-19T07:10:46;103039.94;;;14.07;42.28
4273;BME280;63887;53.656;9.810;2023-04-19T07:13:13;103041.56;;;12.65;43.55
4273;BME280;63887;53.656;9.810;2023-04-19T07:15:39;103038.59;;;12.43;45.60
4273;BME280;63887;53.656;9.810;2023-04-19T07:18:06;103043.47;;;12.24;46.09
4273;BME280;63887;53.656;9.810;2023-04-19T07:20:34;103032.22;;;12.17;48.00
4273;BME280;63887;53.656;9.810;2023-04-19T07:23:02;103039.34;;;11.77;47.98
4273;BME280;63887;53.656;9.810;2023-04-19T07:25:28;103028.03;;;11.34;50.04
4273;BME280;63887;53.656;9.810;2023-04-19T07:27:55;103027.97;;;11.38;48.64
4273;BME280;63887;53.656;9.810;2023-04-19T07:30:21;103031.66;;;11.68;51.15
4273;BME280;63887;53.656;9.810;2023-04-19T07:32:48;103025.00;;;11.91;48.67
4273;BME280;63887;53.656;9.810;2023-04-19T07:35:15;103026.66;;;11.96;48.22
4273;BME280;63887;53.656;9.810;2023-04-19T07:37:42;103023.50;;;11.81;46.06
4273;BME280;63887;53.656;9.810;2023-04-19T07:40:11;103013.75;;;11.85;46.97
4273;BME280;63887;53.656;9.810;2023-04-19T07:42:37;103009.88;;;12.00;47.05
4273;BME280;63887;53.656;9.810;2023-04-19T07:45:04;103016.91;;;12.33;45.18
4273;BME280;63887;53.656;9.810;2023-04-19T07:47:31;103007.59;;;12.21;45.56
4273;BME280;63887;53.656;9.810;2023-04-19T07:49:58;103007.09;;;12.40;44.64
4273;BME280;63887;53.656;9.810;2023-04-19T07:52:24;103013.47;;;11.97;43.44
4273;BME280;63887;53.656;9.810;2023-04-19T07:54:50;103009.06;;;11.98;44.44
4273;BME280;63887;53.656;9.810;2023-04-19T07:57:18;103005.09;;;11.81;44.76
4273;BME280;63887;53.656;9.810;2023-04-19T07:59:45;103010.63;;;12.06;43.96
4273;BME280;63887;53.656;9.810;2023-04-19T08:02:11;103002.38;;;11.84;42.58
4273;BME280;63887;53.656;9.810;2023-04-19T08:04:38;103004.34;;;11.73;43.76
4273;BME280;63887;53.656;9.810;2023-04-19T08:07:06;103003.56;;;11.70;44.86
4273;BME280;63887;53.656;9.810;2023-04-19T08:09:33;103004.81;;;11.92;43.52
4273;BME280;63887;53.656;9.810;2023-04-19T08:12:02;103006.19;;;12.08;43.44
4273;BME280;63887;53.656;9.810;2023-04-19T08:14:30;103009.31;;;12.22;43.96
4273;BME280;63887;53.656;9.810;2023-04-19T08:16:56;103001.25;;;12.29;42.43
4273;BME280;63887;53.656;9.810;2023-04-19T08:19:22;103009.47;;;12.16;42.51
4273;BME280;63887;53.656;9.810;2023-04-19T08:21:49;103006.88;;;12.15;41.67
4273;BME280;63887;53.656;9.810;2023-04-19T08:24:15;103002.47;;;12.15;42.32
4273;BME280;63887;53.656;9.810;2023-04-19T08:26:42;102998.16;;;12.13;42.29
4273;BME280;63887;53.656;9.810;2023-04-19T08:29:08;102997.28;;;12.12;43.37
4273;BME280;63887;53.656;9.810;2023-04-19T08:31:36;102994.66;;;12.12;41.92
4273;BME280;63887;53.656;9.810;2023-04-19T08:34:02;102995.06;;;11.97;41.85
4273;BME280;63887;53.656;9.810;2023-04-19T08:36:29;102991.25;;;12.09;42.78
4273;BME280;63887;53.656;9.810;2023-04-19T08:38:56;103001.34;;;12.26;42.77
4273;BME280;63887;53.656;9.810;2023-04-19T08:41:23;102997.97;;;12.20;40.79
4273;BME280;63887;53.656;9.810;2023-04-19T08:43:52;102999.69;;;12.21;40.37
4273;BME280;63887;53.656;9.810;2023-04-19T08:46:19;102993.13;;;12.04;40.62
4273;BME280;63887;53.656;9.810;2023-04-19T08:48:49;102991.63;;;11.93;40.92
4273;BME280;63887;53.656;9.810;2023-04-19T08:51:16;102973.28;;;11.92;41.23
4273;BME280;63887;53.656;9.810;2023-04-19T08:53:43;102979.41;;;11.92;41.37
4273;BME280;63887;53.656;9.810;2023-04-19T08:56:10;102975.66;;;12.01;40.42
4273;BME280;63887;53.656;9.810;2023-04-19T08:58:37;102970.72;;;11.87;41.06
4273;BME280;63887;53.656;9.810;2023-04-19T09:01:05;102974.69;;;12.05;41.63
4273;BME280;63887;53.656;9.810;2023-04-19T09:03:32;102982.72;;;11.99;40.48
4273;BME280;63887;53.656;9.810;2023-04-19T09:06:00;102973.06;;;12.00;40.09
4273;BME280;63887;53.656;9.810;2023-04-19T09:08:28;102963.38;;;12.02;40.30
4273;BME280;63887;53.656;9.810;2023-04-19T09:10:56;102964.19;;;12.04;40.10
4273;BME280;63887;53.656;9.810;2023-04-19T09:13:23;102955.38;;;12.06;39.70
4273;BME280;63887;53.656;9.810;2023-04-19T09:15:51;102949.97;;;12.11;40.40
4273;BME280;63887;53.656;9.810;2023-04-19T09:18:19;102962.88;;;12.20;41.22
4273;BME280;63887;53.656;9.810;2023-04-19T09:20:45;102950.13;;;12.39;41.46
4273;BME280;63887;53.656;9.810;2023-04-19T09:23:14;102955.88;;;12.53;40.58
4273;BME280;63887;53.656;9.810;2023-04-19T09:25:51;102936.19;;;12.35;38.81
4273;BME280;63887;53.656;9.810;2023-04-19T09:28:18;102935.19;;;12.39;40.03
4273;BME280;63887;53.656;9.810;2023-04-19T09:30:45;102954.81;;;12.28;38.13
4273;BME280;63887;53.656;9.810;2023-04-19T09:33:12;102944.63;;;12.14;37.30
4273;BME280;63887;53.656;9.810;2023-04-19T09:35:39;102956.56;;;12.27;38.15
4273;BME280;63887;53.656;9.810;2023-04-19T09:38:06;102953.16;;;12.23;38.45
4273;BME280;63887;53.656;9.810;2023-04-19T09:40:34;102938.19;;;12.26;36.65
4273;BME280;63887;53.656;9.810;2023-04-19T09:43:01;102941.88;;;12.51;37.75
4273;BME280;63887;53.656;9.810;2023-04-19T09:45:38;102925.34;;;12.46;36.67
4273;BME280;63887;53.656;9.810;2023-04-19T09:48:06;102933.13;;;12.49;37.01
4273;BME280;63887;53.656;9.810;2023-04-19T09:50:32;102914.19;;;12.38;37.24
4273;BME280;63887;53.656;9.810;2023-04-19T09:52:59;102921.22;;;12.37;36.05
4273;BME280;63887;53.656;9.810;2023-04-19T09:55:26;102915.94;;;12.37;36.77
4273;BME280;63887;53.656;9.810;2023-04-19T09:57:54;102905.19;;;12.45;35.55
4273;BME280;63887;53.656;9.810;2023-04-19T10:00:21;102911.78;;;12.60;36.34
4273;BME280;63887;53.656;9.810;2023-04-19T10:02:50;102900.84;;;12.73;35.52
4273;BME280;63887;53.656;9.810;2023-04-19T10:05:20;102899.94;;;12.74;31.23
4273;BME280;63887;53.656;9.810;2023-04-19T10:07:47;102887.75;;;12.72;32.16
4273;BME280;63887;53.656;9.810;2023-04-19T10:10:15;102886.63;;;12.80;33.11
4273;BME280;63887;53.656;9.810;2023-04-19T10:12:47;102886.69;;;12.77;32.64
4273;BME280;63887;53.656;9.810;2023-04-19T10:15:15;102888.34;;;12.81;30.93
4273;BME280;63887;53.656;9.810;2023-04-19T10:17:43;102875.06;;;12.55;30.61
4273;BME280;63887;53.656;9.810;2023-04-19T10:20:12;102888.94;;;12.31;32.31
4273;BME280;63887;53.656;9.810;2023-04-19T10:22:42;102884.09;;;12.46;33.27
4273;BME280;63887;53.656;9.810;2023-04-19T10:25:13;102879.72;;;12.45;32.66
4273;BME280;63887;53.656;9.810;2023-04-19T10:27:40;102870.47;;;12.62;33.93
4273;BME280;63887;53.656;9.810;2023-04-19T10:30:17;102871.06;;;12.71;32.06
4273;BME280;63887;53.656;9.810;2023-04-19T10:32:51;102866.31;;;12.54;32.10
4273;BME280;63887;53.656;9.810;2023-04-19T10:35:20;102868.66;;;12.64;32.23
4273;BME280;63887;53.656;9.810;2023-04-19T10:38:01;102873.97;;;12.62;31.19
4273;BME280;63887;53.656;9.810;2023-04-19T10:40:56;102863.44;;;12.62;30.86
4273;BME280;63887;53.656;9.810;2023-04-19T10:43:25;102865.66;;;12.76;31.26
4273;BME280;63887;53.656;9.810;2023-04-19T10:45:54;102837.66;;;12.73;30.42
4273;BME280;63887;53.656;9.810;2023-04-19T10:48:37;102866.72;;;12.70;30.54
4273;BME280;63887;53.656;9.810;2023-04-19T10:51:11;102842.97;;;12.72;30.41
4273;BME280;63887;53.656;9.810;2023-04-19T10:53:43;102841.09;;;12.75;30.50
4273;BME280;63887;53.656;9.810;2023-04-19T10:56:10;102835.72;;;12.80;29.35
4273;BME280;63887;53.656;9.810;2023-04-19T11:01:40;102836.69;;;12.76;28.33
4273;BME280;63887;53.656;9.810;2023-04-19T11:04:07;102835.19;;;12.69;28.41
4273;BME280;63887;53.656;9.810;2023-04-19T11:06:35;102831.63;;;12.70;28.27
4273;BME280;63887;53.656;9.810;2023-04-19T11:09:02;102823.09;;;12.62;28.46
4273;BME280;63887;53.656;9.810;2023-04-19T11:11:32;102839.59;;;12.68;27.97
4273;BME280;63887;53.656;9.810;2023-04-19T11:14:00;102823.53;;;12.76;27.80
4273;BME280;63887;53.656;9.810;2023-04-19T11:16:28;102810.50;;;12.71;28.72
4273;BME280;63887;53.656;9.810;2023-04-19T11:18:56;102819.66;;;12.88;29.00
4273;BME280;63887;53.656;9.810;2023-04-19T11:21:22;102813.09;;;12.73;26.45
4273;BME280;63887;53.656;9.810;2023-04-19T11:24:04;102813.25;;;12.68;26.62
4273;BME280;63887;53.656;9.810;2023-04-19T11:26:31;102821.97;;;12.70;26.71
4273;BME280;63887;53.656;9.810;2023-04-19T11:28:57;102809.72;;;12.69;27.78
4273;BME280;63887;53.656;9.810;2023-04-19T11:31:24;102816.66;;;12.72;27.73
4273;BME280;63887;53.656;9.810;2023-04-19T11:33:51;102820.78;;;12.79;26.45
4273;BME280;63887;53.656;9.810;2023-04-19T11:36:18;102801.97;;;12.63;26.16
4273;BME280;63887;53.656;9.810;2023-04-19T11:38:46;102814.22;;;12.66;27.04
4273;BME280;63887;53.656;9.810;2023-04-19T11:41:12;102795.13;;;12.58;26.13
4273;BME280;63887;53.656;9.810;2023-04-19T11:43:39;102807.59;;;12.52;26.80
4273;BME280;63887;53.656;9.810;2023-04-19T11:46:10;102797.00;;;12.54;25.97
4273;BME280;63887;53.656;9.810;2023-04-19T11:48:37;102799.44;;;12.60;26.70
4273;BME280;63887;53.656;9.810;2023-04-19T11:51:04;102820.94;;;12.74;26.88
4273;BME280;63887;53.656;9.810;2023-04-19T11:53:32;102795.28;;;12.53;26.14
4273;BME280;63887;53.656;9.810;2023-04-19T11:56:03;102805.53;;;12.62;27.59
4273;BME280;63887;53.656;9.810;2023-04-19T11:58:31;102801.28;;;12.58;26.18
4273;BME280;63887;53.656;9.810;2023-04-19T12:01:05;102792.19;;;12.68;26.54
4273;BME280;63887;53.656;9.810;2023-04-19T12:03:31;102791.19;;;12.72;26.62
4273;BME280;63887;53.656;9.810;2023-04-19T12:05:59;102792.94;;;12.72;27.73
4273;BME280;63887;53.656;9.810;2023-04-19T12:08:33;102795.25;;;12.54;26.53
4273;BME280;63887;53.656;9.810;2023-04-19T12:11:01;102795.81;;;12.64;27.28
4273;BME280;63887;53.656;9.810;2023-04-19T12:13:29;102791.50;;;12.62;26.30
4273;BME280;63887;53.656;9.810;2023-04-19T12:15:56;102805.47;;;12.64;26.72
4273;BME280;63887;53.656;9.810;2023-04-19T12:18:23;102787.84;;;12.67;26.43
4273;BME280;63887;53.656;9.810;2023-04-19T12:20:50;102791.59;;;12.59;26.01
4273;BME280;63887;53.656;9.810;2023-04-19T12:23:19;102789.47;;;12.42;26.66
4273;BME280;63887;53.656;9.810;2023-04-19T12:25:47;102780.72;;;12.41;26.45
4273;BME280;63887;53.656;9.810;2023-04-19T12:28:14;102796.09;;;12.55;26.56
4273;BME280;63887;53.656;9.810;2023-04-19T12:30:42;102785.84;;;12.46;25.79
4273;BME280;63887;53.656;9.810;2023-04-19T12:33:08;102774.75;;;12.36;24.97
4273;BME280;63887;53.656;9.810;2023-04-19T12:35:35;102777.03;;;12.47;25.91
4273;BME280;63887;53.656;9.810;2023-04-19T12:38:02;102787.50;;;12.48;25.25
4273;BME280;63887;53.656;9.810;2023-04-19T12:40:29;102794.47;;;12.21;26.20
4273;BME280;63887;53.656;9.810;2023-04-19T12:42:57;102783.56;;;12.34;26.87
4273;BME280;63887;53.656;9.810;2023-04-19T12:45:24;102792.06;;;12.43;26.76
4273;BME280;63887;53.656;9.810;2023-04-19T12:47:50;102787.84;;;12.38;25.71
4273;BME280;63887;53.656;9.810;2023-04-19T12:50:17;102780.56;;;12.16;26.35
4273;BME280;63887;53.656;9.810;2023-04-19T12:52:44;102769.69;;;12.29;25.70
4273;BME280;63887;53.656;9.810;2023-04-19T12:55:11;102764.25;;;12.35;25.41
4273;BME280;63887;53.656;9.810;2023-04-19T12:57:37;102782.25;;;12.20;25.33
4273;BME280;63887;53.656;9.810;2023-04-19T13:00:07;102764.63;;;12.22;24.89
4273;BME280;63887;53.656;9.810;2023-04-19T13:02:34;102778.59;;;12.24;24.91
4273;BME280;63887;53.656;9.810;2023-04-19T13:05:02;102784.13;;;12.15;24.51
4273;BME280;63887;53.656;9.810;2023-04-19T13:07:29;102769.75;;;12.27;25.03
4273;BME280;63887;53.656;9.810;2023-04-19T13:09:55;102780.78;;;12.10;23.58